createdAt,value
2019-04-14T00:01:08.822Z,3.40
2019-04-14T00:04:00.814Z,3.40
2019-04-14T00:06:32.930Z,3.40
2019-04-14T00:09:05.825Z,3.60
2019-04-14T00:11:41.252Z,3.60
2019-04-14T00:14:11.834Z,3.60
2019-04-14T00:16:42.434Z,3.60
2019-04-14T00:19:13.055Z,3.60
2019-04-14T00:21:43.696Z,3.60
2019-04-14T00:24:14.113Z,3.50
2019-04-14T00:26:44.644Z,3.60
2019-04-14T00:29:15.258Z,3.50
2019-04-14T00:31:45.764Z,3.50
2019-04-14T00:34:35.394Z,3.50
2019-04-14T00:37:25.198Z,3.50
2019-04-14T00:39:59.759Z,3.40
2019-04-14T00:42:52.168Z,3.30
2019-04-14T00:45:44.466Z,3.30
2019-04-14T00:48:14.282Z,3.20
2019-04-14T00:50:43.088Z,3.20
2019-04-14T00:53:14.258Z,3.30
2019-04-14T00:55:44.603Z,3.30
2019-04-14T00:58:14.959Z,3.40
2019-04-14T01:00:45.444Z,3.40
2019-04-14T01:03:15.793Z,3.50
2019-04-14T01:05:46.216Z,3.50
2019-04-14T01:08:16.610Z,3.50
2019-04-14T01:10:47.666Z,3.40
2019-04-14T01:13:18.216Z,3.40
2019-04-14T01:15:58.673Z,3.50
2019-04-14T01:18:21.230Z,3.50
2019-04-14T01:20:51.769Z,3.50
2019-04-14T01:23:22.123Z,3.50
2019-04-14T01:25:52.464Z,3.60
2019-04-14T01:28:22.850Z,3.60
2019-04-14T01:30:54.358Z,3.60
2019-04-14T01:33:25.028Z,3.60
2019-04-14T01:35:55.464Z,3.60
2019-04-14T01:38:25.764Z,3.60
2019-04-14T01:40:56.048Z,3.60
2019-04-14T01:43:26.388Z,3.70
2019-04-14T01:46:05.222Z,3.80
2019-04-14T01:48:28.962Z,3.80
2019-04-14T01:51:13.510Z,3.90
2019-04-14T01:54:03.859Z,3.90
2019-04-14T01:56:51.933Z,3.80
2019-04-14T01:59:22.363Z,3.80
2019-04-14T02:01:54.278Z,3.80
2019-04-14T02:04:24.684Z,3.80
2019-04-14T02:06:55.281Z,3.70
2019-04-14T02:09:25.670Z,3.80
2019-04-14T02:11:57.223Z,3.80
2019-04-14T02:14:27.856Z,3.80
2019-04-14T02:17:01.347Z,3.70
2019-04-14T02:19:32.673Z,3.70
2019-04-14T02:22:05.481Z,3.60
2019-04-14T02:24:35.934Z,3.60
2019-04-14T02:27:07.724Z,3.40
2019-04-14T02:29:38.396Z,3.40
2019-04-14T02:32:42.583Z,3.30
2019-04-14T02:35:13.319Z,3.30
2019-04-14T02:37:49.200Z,3.30
2019-04-14T02:45:19.388Z,3.20
2019-04-14T02:50:20.837Z,3.30
2019-04-14T02:52:58.588Z,3.30
2019-04-14T02:55:19.355Z,3.30
2019-04-14T02:57:52.167Z,3.30
2019-04-14T03:00:31.572Z,3.30
2019-04-14T03:03:01.373Z,3.40
2019-04-14T03:05:34.130Z,3.30
2019-04-14T03:08:11.211Z,3.30
2019-04-14T03:13:13.075Z,3.20
2019-04-14T03:21:49.103Z,3.30
2019-04-14T03:24:44.445Z,3.30
2019-04-14T03:27:45.830Z,3.30
2019-04-14T03:38:13.265Z,3.10
2019-04-14T03:43:28.357Z,3.20
2019-04-14T03:50:47.994Z,3.10
2019-04-14T03:53:21.756Z,3.00
2019-04-14T03:56:06.689Z,3.00
2019-04-14T03:58:33.561Z,2.90
2019-04-14T04:01:04.553Z,2.90
2019-04-14T04:03:36.806Z,2.90
2019-04-14T04:06:07.564Z,2.90
2019-04-14T04:08:37.918Z,2.90
2019-04-14T04:11:08.398Z,2.90
2019-04-14T04:13:39.068Z,2.90
2019-04-14T04:16:23.035Z,2.90
2019-04-14T04:19:00.856Z,2.90
2019-04-14T04:21:47.112Z,2.80
2019-04-14T04:24:35.231Z,2.80
2019-04-14T04:27:15.807Z,2.80
2019-04-14T04:30:06.002Z,2.80
2019-04-14T04:33:02.474Z,2.80
2019-04-14T04:35:35.752Z,2.70
2019-04-14T04:38:29.086Z,2.70
2019-04-14T04:40:59.515Z,2.60
2019-04-14T04:43:29.833Z,2.50
2019-04-14T04:46:00.595Z,2.50
2019-04-14T04:48:32.886Z,2.60
2019-04-14T04:51:03.497Z,2.50
2019-04-14T04:53:33.957Z,2.50
2019-04-14T04:56:04.401Z,2.40
2019-04-14T04:58:34.888Z,2.40
2019-04-14T05:01:05.719Z,2.50
2019-04-14T05:03:36.398Z,2.60
2019-04-14T05:06:30.889Z,2.60
2019-04-14T05:09:07.743Z,2.60
2019-04-14T05:11:52.578Z,2.70
2019-04-14T05:14:30.494Z,2.80
2019-04-14T05:17:01.456Z,2.90
2019-04-14T05:19:35.941Z,2.90
2019-04-14T05:22:04.876Z,3.00
2019-04-14T05:24:35.415Z,3.00
2019-04-14T05:27:05.795Z,3.10
2019-04-14T05:29:36.497Z,3.10
2019-04-14T05:32:06.957Z,3.30
2019-04-14T05:34:37.318Z,3.30
2019-04-14T05:37:07.673Z,3.30
2019-04-14T05:39:37.949Z,3.40
2019-04-14T05:42:14.050Z,3.40
2019-04-14T05:44:40.518Z,3.50
2019-04-14T05:47:11.150Z,3.50
2019-04-14T05:49:47.066Z,3.50
2019-04-14T05:52:14.565Z,3.60
2019-04-14T05:54:45.005Z,3.70
2019-04-14T05:57:15.568Z,3.70
2019-04-14T05:59:46.206Z,3.80
2019-04-14T06:02:16.638Z,3.80
2019-04-14T06:04:48.338Z,3.80
2019-04-14T06:07:18.698Z,3.80
2019-04-14T06:09:49.125Z,3.80
2019-04-14T06:12:19.474Z,3.80
2019-04-14T06:14:49.758Z,3.80
2019-04-14T06:17:20.106Z,3.80
2019-04-14T06:19:50.462Z,3.80
2019-04-14T06:22:20.714Z,3.80
2019-04-14T06:24:51.002Z,4.00
2019-04-14T06:27:21.294Z,4.00
2019-04-14T06:29:53.709Z,4.10
2019-04-14T06:32:42.136Z,4.20
2019-04-14T06:35:21.362Z,4.30
2019-04-14T06:37:58.083Z,4.30
2019-04-14T06:40:31.222Z,4.30
2019-04-14T06:43:01.582Z,4.40
2019-04-14T06:45:31.854Z,4.50
2019-04-14T06:48:02.191Z,4.60
2019-04-14T06:50:32.550Z,4.70
2019-04-14T06:53:02.874Z,4.80
2019-04-14T06:55:33.238Z,4.90
2019-04-14T06:58:03.507Z,5.00
2019-04-14T07:00:34.658Z,5.10
2019-04-14T07:03:05.011Z,5.00
2019-04-14T07:05:35.289Z,5.00
2019-04-14T07:08:05.735Z,4.90
2019-04-14T07:10:36.025Z,5.00
2019-04-14T07:13:06.374Z,5.20
2019-04-14T07:15:36.866Z,5.30
2019-04-14T07:18:07.209Z,5.30
2019-04-14T07:20:37.502Z,5.30
2019-04-14T07:23:07.841Z,5.60
2019-04-14T07:25:39.178Z,5.80
2019-04-14T07:28:09.518Z,6.00
2019-04-14T07:30:49.639Z,6.10
2019-04-14T07:33:32.718Z,6.40
2019-04-14T07:36:28.141Z,6.90
2019-04-14T07:39:16.094Z,7.00
2019-04-14T07:41:54.778Z,7.30
2019-04-14T07:44:31.567Z,7.30
2019-04-14T07:47:21.058Z,7.60
2019-04-14T07:50:14.804Z,7.50
2019-04-14T07:53:03.599Z,7.70
2019-04-14T07:55:41.251Z,7.60
2019-04-14T07:58:33.695Z,7.40
2019-04-14T08:01:16.889Z,7.50
2019-04-14T08:04:04.894Z,7.70
2019-04-14T08:06:38.211Z,7.80
2019-04-14T08:09:07.913Z,7.80
2019-04-14T08:11:38.234Z,8.00
2019-04-14T08:14:08.947Z,8.00
2019-04-14T08:16:39.382Z,8.00
2019-04-14T08:19:09.762Z,8.00
2019-04-14T08:21:40.138Z,8.30
2019-04-14T08:24:10.417Z,8.20
2019-04-14T08:26:40.857Z,8.30
2019-04-14T08:29:11.168Z,8.70
2019-04-14T08:31:41.619Z,8.60
2019-04-14T08:34:11.890Z,8.80
2019-04-14T08:36:42.338Z,9.10
2019-04-14T08:39:12.619Z,9.10
2019-04-14T08:42:10.929Z,9.20
2019-04-14T08:44:43.468Z,9.20
2019-04-14T08:47:31.791Z,9.60
2019-04-14T08:50:10.791Z,9.60
2019-04-14T08:53:05.207Z,9.30
2019-04-14T08:56:13.192Z,9.40
2019-04-14T08:59:05.407Z,9.80
2019-04-14T09:02:00.611Z,9.80
2019-04-14T09:04:41.039Z,9.80
2019-04-14T09:07:16.330Z,9.90
2019-04-14T09:09:50.762Z,10.10
2019-04-14T09:12:24.672Z,10.10
2019-04-14T09:14:57.227Z,10.00
2019-04-14T09:17:28.438Z,10.20
2019-04-14T09:19:58.818Z,10.10
2019-04-14T09:22:29.162Z,9.90
2019-04-14T09:24:59.527Z,9.90
2019-04-14T09:27:29.862Z,10.10
2019-04-14T09:30:00.213Z,9.80
2019-04-14T09:32:31.098Z,9.90
2019-04-14T09:35:01.462Z,10.00
2019-04-14T09:37:31.822Z,10.20
2019-04-14T09:40:02.238Z,10.30
2019-04-14T09:42:32.639Z,10.40
2019-04-14T09:45:03.066Z,10.60
2019-04-14T09:47:33.438Z,10.30
2019-04-14T09:50:04.621Z,10.30
2019-04-14T09:52:35.071Z,10.40
2019-04-14T09:55:06.094Z,10.80
2019-04-14T09:57:36.534Z,10.70
2019-04-14T10:00:08.842Z,10.70
2019-04-14T10:02:39.321Z,10.90
2019-04-14T10:05:09.762Z,11.00
2019-04-14T10:07:41.034Z,11.10
2019-04-14T10:10:11.570Z,10.80
2019-04-14T10:12:42.047Z,10.60
2019-04-14T10:15:12.478Z,10.30
2019-04-14T10:17:42.822Z,10.10
2019-04-14T10:20:13.242Z,10.30
2019-04-14T10:22:43.624Z,10.40
2019-04-14T10:25:13.938Z,10.60
2019-04-14T10:27:44.319Z,10.70
2019-04-14T10:30:14.758Z,10.70
2019-04-14T10:32:45.046Z,10.60
2019-04-14T10:35:15.355Z,10.80
2019-04-14T10:37:45.655Z,10.80
2019-04-14T10:40:16.002Z,10.80
2019-04-14T10:42:46.330Z,10.90
2019-04-14T10:45:18.362Z,11.00
2019-04-14T10:47:50.299Z,11.00
2019-04-14T10:50:30.763Z,11.10
2019-04-14T10:52:53.048Z,11.10
2019-04-14T10:55:23.358Z,11.10
2019-04-14T10:57:53.810Z,11.00
2019-04-14T11:00:24.180Z,11.10
2019-04-14T11:02:54.494Z,11.10
2019-04-14T11:05:26.838Z,11.10
2019-04-14T11:07:57.223Z,11.20
2019-04-14T11:10:27.575Z,11.40
2019-04-14T11:12:59.028Z,11.50
2019-04-14T11:15:29.394Z,11.30
2019-04-14T11:17:59.727Z,11.50
2019-04-14T11:20:31.067Z,11.70
2019-04-14T11:23:03.629Z,11.40
2019-04-14T11:25:34.234Z,11.20
2019-04-14T11:28:04.691Z,11.10
2019-04-14T11:30:35.218Z,11.00
2019-04-14T11:33:20.223Z,11.10
2019-04-14T11:36:01.179Z,11.00
2019-04-14T11:38:38.074Z,11.20
2019-04-14T11:41:11.675Z,11.10
2019-04-14T11:43:42.054Z,11.00
2019-04-14T11:46:12.587Z,11.00
2019-04-14T11:48:43.031Z,10.80
2019-04-14T11:51:13.407Z,10.70
2019-04-14T11:53:43.690Z,10.80
2019-04-14T11:56:14.159Z,10.90
2019-04-14T11:58:45.717Z,10.70
2019-04-14T12:01:50.602Z,10.70
2019-04-14T12:04:47.531Z,10.80
2019-04-14T12:07:36.051Z,10.80
2019-04-14T12:10:15.023Z,10.80
2019-04-14T12:12:45.378Z,10.80
2019-04-14T12:15:16.538Z,10.80
2019-04-14T12:17:47.266Z,11.00
2019-04-14T12:20:17.638Z,11.00
2019-04-14T12:22:48.038Z,10.90
2019-04-14T12:25:18.506Z,11.00
2019-04-14T12:27:48.987Z,11.10
2019-04-14T12:30:20.169Z,11.10
2019-04-14T12:32:50.782Z,11.10
2019-04-14T12:35:21.306Z,11.10
2019-04-14T12:37:51.695Z,11.00
2019-04-14T12:40:22.122Z,11.00
2019-04-14T12:43:17.664Z,11.10
2019-04-14T12:46:06.309Z,11.10
2019-04-14T12:48:45.571Z,11.10
2019-04-14T12:51:26.300Z,11.00
2019-04-14T12:53:56.759Z,11.10
2019-04-14T12:56:28.472Z,11.10
2019-04-14T12:59:17.988Z,11.10
2019-04-14T13:02:06.330Z,11.00
2019-04-14T13:04:36.871Z,11.00
2019-04-14T13:07:07.204Z,11.10
2019-04-14T13:09:37.698Z,11.10
2019-04-14T13:12:10.428Z,11.10
2019-04-14T13:14:40.982Z,11.20
2019-04-14T13:17:11.271Z,11.00
2019-04-14T13:19:41.715Z,11.00
2019-04-14T13:22:12.170Z,11.00
2019-04-14T13:24:42.534Z,11.10
2019-04-14T13:27:12.987Z,11.10
2019-04-14T13:29:43.367Z,11.10
2019-04-14T13:32:13.895Z,11.20
2019-04-14T13:34:44.263Z,11.20
2019-04-14T13:37:14.707Z,11.10
2019-04-14T13:39:45.095Z,11.20
2019-04-14T13:42:15.538Z,11.30
2019-04-14T13:44:46.011Z,11.20
2019-04-14T13:47:16.399Z,11.20
2019-04-14T13:49:46.858Z,11.30
2019-04-14T13:52:17.210Z,11.40
2019-04-14T13:54:47.648Z,11.30
2019-04-14T13:57:17.988Z,11.30
2019-04-14T13:59:48.427Z,11.20
2019-04-14T14:02:18.812Z,11.20
2019-04-14T14:04:49.199Z,11.10
2019-04-14T14:07:20.052Z,11.20
2019-04-14T14:09:50.412Z,11.20
2019-04-14T14:12:38.700Z,11.30
2019-04-14T14:15:21.595Z,11.30
2019-04-14T14:18:09.620Z,11.30
2019-04-14T14:21:17.375Z,11.40
2019-04-14T14:24:07.829Z,11.30
2019-04-14T14:26:39.007Z,11.30
2019-04-14T14:29:09.455Z,11.30
2019-04-14T14:31:39.995Z,11.40
2019-04-14T14:34:10.376Z,11.40
2019-04-14T14:36:40.796Z,11.30
2019-04-14T14:39:11.303Z,11.20
2019-04-14T14:41:41.686Z,11.20
2019-04-14T14:44:12.199Z,11.30
2019-04-14T14:46:52.194Z,11.30
2019-04-14T14:49:47.576Z,11.40
2019-04-14T14:52:19.329Z,11.50
2019-04-14T14:54:49.743Z,11.30
2019-04-14T14:57:20.195Z,11.30
2019-04-14T14:59:50.731Z,11.20
2019-04-14T15:02:21.261Z,11.30
2019-04-14T15:04:51.626Z,11.50
2019-04-14T15:07:22.044Z,11.60
2019-04-14T15:09:52.421Z,11.50
2019-04-14T15:12:23.678Z,11.30
2019-04-14T15:14:54.053Z,11.30
2019-04-14T15:17:24.785Z,11.30
2019-04-14T15:19:55.126Z,11.50
2019-04-14T15:22:25.549Z,11.50
2019-04-14T15:24:55.877Z,11.60
2019-04-14T15:27:26.173Z,11.70
2019-04-14T15:29:56.458Z,11.50
2019-04-14T15:32:26.737Z,11.30
2019-04-14T15:34:57.177Z,11.20
2019-04-14T15:37:27.493Z,11.20
2019-04-14T15:39:57.815Z,11.30
2019-04-14T15:42:28.277Z,11.30
2019-04-14T15:44:58.606Z,11.40
2019-04-14T15:47:28.949Z,11.40
2019-04-14T15:49:59.248Z,11.40
2019-04-14T15:52:29.594Z,11.40
2019-04-14T15:55:00.062Z,11.40
2019-04-14T15:57:49.563Z,11.20
2019-04-14T16:00:38.033Z,11.20
2019-04-14T16:03:20.270Z,11.00
2019-04-14T16:06:12.857Z,10.80
2019-04-14T16:09:02.390Z,10.90
2019-04-14T16:11:56.193Z,11.00
2019-04-14T16:14:45.388Z,11.20
2019-04-14T16:17:52.921Z,11.30
2019-04-14T16:20:29.417Z,11.30
2019-04-14T16:22:59.785Z,11.20
2019-04-14T16:25:42.057Z,11.00
2019-04-14T16:28:22.969Z,10.90
2019-04-14T16:31:21.749Z,10.90
2019-04-14T16:34:10.629Z,10.90
2019-04-14T16:36:42.042Z,10.80
2019-04-14T16:39:12.426Z,10.80
2019-04-14T16:41:43.118Z,10.70
2019-04-14T16:44:13.558Z,10.70
2019-04-14T16:46:44.095Z,10.70
2019-04-14T16:49:14.522Z,10.60
2019-04-14T16:51:49.450Z,10.60
2019-04-14T16:54:26.426Z,10.60
2019-04-14T16:57:08.646Z,10.70
2019-04-14T16:59:40.081Z,10.80
2019-04-14T17:02:11.368Z,10.80
2019-04-14T17:04:41.964Z,10.80
2019-04-14T17:07:12.321Z,10.90
2019-04-14T17:09:42.739Z,10.80
2019-04-14T17:12:14.681Z,10.70
2019-04-14T17:14:58.181Z,10.50
2019-04-14T17:17:40.069Z,10.30
2019-04-14T17:20:40.947Z,10.20
2019-04-14T17:23:19.414Z,10.20
2019-04-14T17:25:55.062Z,10.10
2019-04-14T17:28:38.709Z,10.00
2019-04-14T17:31:17.088Z,10.00
2019-04-14T17:34:09.494Z,9.90
2019-04-14T17:36:51.623Z,9.80
2019-04-14T17:39:50.445Z,9.60
2019-04-14T17:42:27.527Z,9.50
2019-04-14T17:45:19.774Z,9.40
2019-04-14T17:48:07.689Z,9.40
2019-04-14T17:50:57.030Z,9.30
2019-04-14T17:53:38.927Z,9.20
2019-04-14T17:56:34.206Z,9.20
2019-04-14T17:59:11.225Z,9.10
2019-04-14T18:01:54.777Z,9.20
2019-04-14T18:04:50.394Z,9.20
2019-04-14T18:07:25.077Z,9.20
2019-04-14T18:10:20.670Z,9.30
2019-04-14T18:13:13.786Z,9.20
2019-04-14T18:16:02.119Z,9.20
2019-04-14T18:18:52.133Z,9.10
2019-04-14T18:21:22.503Z,9.00
2019-04-14T18:23:52.790Z,8.90
2019-04-14T18:26:23.158Z,8.90
2019-04-14T18:29:12.675Z,8.80
2019-04-14T18:32:10.126Z,8.70
2019-04-14T18:34:45.866Z,8.60
2019-04-14T18:37:32.725Z,8.50
2019-04-14T18:40:22.198Z,8.40
2019-04-14T18:43:06.762Z,8.30
2019-04-14T18:45:56.313Z,8.30
2019-04-14T18:48:34.274Z,8.20
2019-04-14T18:51:10.575Z,8.10
2019-04-14T18:53:58.574Z,8.00
2019-04-14T18:56:46.854Z,8.10
2019-04-14T18:59:36.535Z,8.10
2019-04-14T19:02:07.288Z,8.00
2019-04-14T19:04:37.723Z,8.10
2019-04-14T19:07:08.715Z,8.10
2019-04-14T19:09:40.150Z,8.20
2019-04-14T19:12:35.618Z,8.20
2019-04-14T19:15:31.395Z,8.20
2019-04-14T19:18:26.878Z,8.30
2019-04-14T19:21:00.427Z,8.30
2019-04-14T19:23:31.070Z,8.30
2019-04-14T19:26:01.614Z,8.30
2019-04-14T19:28:31.948Z,8.30
2019-04-14T19:31:02.379Z,8.40
2019-04-14T19:33:33.788Z,8.40
2019-04-14T19:36:04.366Z,8.40
2019-04-14T19:38:34.838Z,8.30
2019-04-14T19:41:05.751Z,8.30
2019-04-14T19:43:36.098Z,8.30
2019-04-14T19:46:06.442Z,8.30
2019-04-14T19:48:36.903Z,8.30
2019-04-14T19:51:07.261Z,8.40
2019-04-14T19:53:37.630Z,8.30
2019-04-14T19:56:08.029Z,8.40
2019-04-14T19:58:38.355Z,8.30
2019-04-14T20:01:08.852Z,8.30
2019-04-14T20:03:39.188Z,8.30
2019-04-14T20:06:09.684Z,8.30
2019-04-14T20:08:40.030Z,8.30
2019-04-14T20:11:10.570Z,8.30
2019-04-14T20:13:44.551Z,8.30
2019-04-14T20:16:32.782Z,8.30
2019-04-14T20:19:24.059Z,8.30
2019-04-14T20:22:01.202Z,8.30
2019-04-14T20:24:53.462Z,8.20
2019-04-14T20:27:36.598Z,8.20
2019-04-14T20:30:11.284Z,8.20
2019-04-14T20:32:42.498Z,8.20
2019-04-14T20:35:14.717Z,8.20
2019-04-14T20:37:45.137Z,8.20
2019-04-14T20:40:15.663Z,8.20
2019-04-14T20:42:46.074Z,8.20
2019-04-14T20:45:18.376Z,8.20
2019-04-14T20:47:48.718Z,8.10
2019-04-14T20:50:19.127Z,8.10
2019-04-14T20:52:49.490Z,8.00
2019-04-14T20:55:20.400Z,8.00
2019-04-14T20:57:50.765Z,7.90
2019-04-14T21:00:21.829Z,7.90
2019-04-14T21:03:09.775Z,7.80
2019-04-14T21:06:02.319Z,7.80
2019-04-14T21:08:52.019Z,7.70
2019-04-14T21:11:26.123Z,7.60
2019-04-14T21:14:11.762Z,7.60
2019-04-14T21:17:06.950Z,7.60
2019-04-14T21:19:45.684Z,7.50
2019-04-14T21:22:23.679Z,7.40
2019-04-14T21:25:00.526Z,7.30
2019-04-14T21:28:05.531Z,7.20
2019-04-14T21:30:43.131Z,7.10
2019-04-14T21:33:41.449Z,7.00
2019-04-14T21:36:16.086Z,7.00
2019-04-14T21:39:08.193Z,6.90
2019-04-14T21:41:40.251Z,6.90
2019-04-14T21:44:10.491Z,6.80
2019-04-14T21:46:40.847Z,6.70
2019-04-14T21:49:11.259Z,6.70
2019-04-14T21:51:55.523Z,6.70
2019-04-14T21:54:25.980Z,6.70
2019-04-14T21:57:21.770Z,6.70
2019-04-14T22:00:15.823Z,6.70
2019-04-14T22:03:05.799Z,6.60
2019-04-14T22:05:42.231Z,6.50
2019-04-14T22:08:19.496Z,6.40
2019-04-14T22:10:55.510Z,6.30
2019-04-14T22:13:25.908Z,6.20
2019-04-14T22:15:56.306Z,6.20
2019-04-14T22:18:26.655Z,6.20
2019-04-14T22:20:57.058Z,6.20
2019-04-14T22:23:27.502Z,6.10
2019-04-14T22:25:57.988Z,6.10
2019-04-14T22:28:28.468Z,6.10
2019-04-14T22:30:59.843Z,6.00
2019-04-14T22:33:30.715Z,6.00
2019-04-14T22:36:03.735Z,5.90
2019-04-14T22:38:34.179Z,5.90
2019-04-14T22:41:05.015Z,5.80
2019-04-14T22:43:35.343Z,5.80
2019-04-14T22:46:05.767Z,5.70
2019-04-14T22:48:36.088Z,5.80
2019-04-14T22:51:06.421Z,5.80
2019-04-14T22:53:36.723Z,5.80
2019-04-14T22:56:14.619Z,5.80
2019-04-14T22:58:44.927Z,5.80
2019-04-14T23:01:26.420Z,5.90
2019-04-14T23:04:17.591Z,6.00
2019-04-14T23:07:06.574Z,5.90
2019-04-14T23:09:45.303Z,5.90
2019-04-14T23:12:40.801Z,6.00
2019-04-14T23:15:26.819Z,6.00
2019-04-14T23:21:10.024Z,6.00
2019-04-14T23:23:58.319Z,6.10
2019-04-14T23:26:28.643Z,6.20
2019-04-14T23:28:58.911Z,6.20
2019-04-14T23:31:29.419Z,6.30
2019-04-14T23:33:59.851Z,6.30
2019-04-14T23:36:30.139Z,6.30
2019-04-14T23:39:00.486Z,6.10
2019-04-14T23:41:31.117Z,6.10
2019-04-14T23:44:01.367Z,6.10
2019-04-14T23:46:31.644Z,6.10
2019-04-14T23:49:01.975Z,6.00
2019-04-14T23:51:32.432Z,6.00
2019-04-14T23:54:02.744Z,6.00
2019-04-14T23:56:33.227Z,6.00
2019-04-14T23:59:04.169Z,6.00
